CYDF/YDF METAR and TAF weather

Enter ICAO airport designator
Station Type Date Time Source
CYDF METAR 2018/07/19 07:00 UTC NOAA

CYDF 190700Z 21005KT 15SM -SHRA OVC015 18/18 A2978 RMK SC8 SLP086 DENSITY ALT 700FT


Station Type Date Time Source
CYDF Decoded METAR 2018/07/19 07:00 UTC NOAA

Deer Lake, Nfld., Canada (CYDF) 49-13N 057-24W 22M
Jul 19, 2018 - 03:00 AM EDT / 2018.07.19 0700 UTC
Wind: from the SSW (210 degrees) at 6 MPH (5 KT):0
Visibility: 15 mile(s):0
Sky conditions: overcast
Weather: light rain showers
Temperature: 64 F (18 C)
Dew Point: 64 F (18 C)
Relative Humidity: 100%
Pressure (altimeter): 29.78 in. Hg (1008 hPa)
ob: CYDF 190700Z 21005KT 15SM -SHRA OVC015 18/18 A2978 RMK SC8 SLP086 DENSITY ALT 700FT
cycle: 7

Station Type Date Time Source
CYDF TAF 2018/07/19 02:42 UTC NOAA

TAF CYDF 190138Z 1902/1914 19005KT 5SM -SHRA BR OVC015
TEMPO 1902/1905 P6SM -SHRA OVC025
FM190500 24005KT P6SM OVC015 PROB30 1905/1910 2SM BR OVC006
FM191300 24010KT P6SM SCT020
RMK NXT FCST BY 190800Z


Example: see airport list